Time;durP1;ratioP1;P1;durP2;ratioP2;P2;SDS_P1;SDS_P2;PMS_P1;PMS_P2;Temp;Humidity;BMP_temperature;BMP_pressure;BME280_temperature;BME280_humidity;BME280_pressure;Samples;Min_cycle;Max_cycle;Signal;HPM_P1;HPM_P2
2022/08/21 01:16:24;;;;;;;7.18;1.65;;;;;;;13.45;100.00;101027.94;6220729;22;20012;-87
2022/08/21 01:18:51;;;;;;;10.68;1.90;;;;;;;13.06;100.00;100978.34;6217264;22;20032;-86
2022/08/21 01:21:23;;;;;;;12.63;2.22;;;;;;;13.96;100.00;101117.22;6243120;22;19996;-88
2022/08/21 01:23:51;;;;;;;8.32;1.88;;;;;;;14.64;100.00;101218.81;6217188;23;19992;-87
2022/08/21 01:26:19;;;;;;;8.52;2.17;;;;;;;14.63;100.00;101215.25;6217087;23;20286;-86
2022/08/21 01:29:05;;;;;;;10.38;2.15;;;;;;;14.54;100.00;101201.13;6243794;22;20016;-87
2022/08/21 01:59:53;;;;;;;10.88;2.10;;;;;;;14.43;100.00;101226.13;6244637;23;20060;-87
2022/08/21 04:41:45;;;;;;;5.25;1.50;;;;;;;18.49;100.00;101173.06;6218363;22;20041;31
2022/08/21 04:44:11;;;;;;;8.85;1.75;;;;;;;18.16;97.93;101043.03;6156863;23;19997;-86
2022/08/21 04:46:37;;;;;;;6.90;1.50;;;;;;;18.35;95.56;101030.03;6157701;23;20006;-87
2022/08/21 05:27:50;;;;;;;5.20;1.38;;;;;;;19.16;86.93;100963.16;6235293;22;20008;-87
2022/08/21 05:30:16;;;;;;;4.47;1.27;;;;;;;19.17;90.35;101024.84;6218080;23;19997;-87
2022/08/21 07:33:37;;;;;;;5.75;1.90;;;;;;;20.99;81.48;101168.56;6220161;22;20016;31
2022/08/21 07:43:48;;;;;;;8.00;2.08;;;;;;;20.09;78.12;100949.50;6220692;22;20016;-75
2022/08/21 07:46:14;;;;;;;6.05;1.92;;;;;;;20.99;79.34;101081.00;6243329;23;20039;-84
2022/08/21 07:48:40;;;;;;;4.88;1.60;;;;;;;21.71;78.55;101147.19;6243403;23;20016;-84
2022/08/21 07:51:10;;;;;;;6.70;1.88;;;;;;;21.65;75.87;101140.03;6243056;23;19999;-84
2022/08/21 07:53:37;;;;;;;6.55;1.92;;;;;;;21.60;75.53;101126.34;6217347;23;20100;-84
2022/08/21 07:58:38;;;;;;;6.68;1.60;;;;;;;20.54;75.63;100964.69;6228468;22;20004;-83
2022/08/21 08:01:05;;;;;;;6.93;1.70;;;;;;;21.23;76.40;101069.69;6216657;23;19993;-84
2022/08/21 08:03:30;;;;;;;6.28;1.92;;;;;;;21.89;76.59;101137.72;6243419;22;19989;-84
2022/08/21 08:05:56;;;;;;;6.78;1.92;;;;;;;22.07;75.94;101136.44;6217254;22;20009;-84
2022/08/21 08:34:14;;;;;;;4.60;1.60;;;;;;;20.86;74.45;100879.88;6232705;22;20021;-84
2022/08/21 08:36:40;;;;;;;6.28;1.75;;;;;;;21.80;73.58;101039.59;6243174;22;19995;-83
2022/08/21 08:39:06;;;;;;;6.35;1.83;;;;;;;21.66;71.63;101004.78;6245125;22;20031;-83
2022/08/21 08:41:33;;;;;;;5.50;1.48;;;;;;;22.24;70.43;101117.88;6244640;22;20024;-87
2022/08/21 08:44:03;;;;;;;6.20;1.77;;;;;;;21.17;70.10;100936.66;6219602;23;19997;-84
2022/08/21 08:46:42;;;;;;;6.95;1.50;;;;;;;21.77;71.22;101033.84;6218995;23;20004;-84
2022/08/21 09:43:26;;;;;;;6.93;2.08;;;;;;;21.87;73.15;100943.47;6214490;22;20578;-78
2022/08/21 11:16:53;;;;;;;5.55;1.58;;;;;;;23.47;71.25;101060.28;6239228;22;20084;-82
2022/08/21 11:19:35;;;;;;;6.10;1.63;;;;;;;23.06;70.33;101013.72;6193880;23;20076;-85
2022/08/21 11:22:28;;;;;;;8.20;2.10;;;;;;;22.27;71.04;100887.06;6217516;23;19993;-84
2022/08/21 11:25:03;;;;;;;3.58;1.45;;;;;;;22.22;70.51;100865.16;6217403;23;19996;-84
2022/08/21 11:27:50;;;;;;;8.00;1.70;;;;;;;23.59;69.97;101069.06;6242910;22;20428;-84
2022/08/21 14:21:09;;;;;;;10.57;2.20;;;;;;;21.53;92.80;100940.38;6222172;22;20028;-85
2022/08/21 14:23:35;;;;;;;9.85;2.40;;;;;;;22.12;92.83;101041.34;6214229;23;20033;-84
2022/08/21 15:17:45;;;;;;;3.25;1.35;;;;;;;21.68;77.18;100860.16;6225175;22;20020;-84
2022/08/21 15:20:10;;;;;;;3.78;1.42;;;;;;;21.95;76.59;100953.06;6217317;23;19996;-84
2022/08/21 15:40:43;;;;;;;5.22;1.50;;;;;;;21.37;81.75;101013.41;6226243;22;20011;-83
2022/08/21 16:45:15;;;;;;;4.90;1.73;;;;;;;20.92;73.34;100872.50;6229182;22;20019;-84
2022/08/21 17:20:26;;;;;;;5.63;1.90;;;;;;;18.80;85.99;100881.97;6214564;23;20087;-84
2022/08/21 17:22:52;;;;;;;10.57;1.85;;;;;;;19.39;86.62;100961.28;6214519;23;20073;-83
2022/08/21 17:25:18;;;;;;;9.60;1.67;;;;;;;20.26;86.90;101086.00;6214548;23;20013;-84
2022/08/21 17:27:47;;;;;;;5.82;1.80;;;;;;;20.18;87.08;101081.84;6213055;23;20013;-83
2022/08/21 17:30:14;;;;;;;5.10;1.60;;;;;;;20.25;87.12;101086.28;6188289;23;20041;-85
2022/08/21 17:32:41;;;;;;;7.93;2.00;;;;;;;20.19;86.95;101075.28;6214435;23;19993;-83
2022/08/21 17:37:43;;;;;;;6.38;1.80;;;;;;;19.15;86.52;100896.06;6210743;22;20052;-84
2022/08/21 17:40:13;;;;;;;6.13;2.03;;;;;;;19.14;85.29;100883.50;6214177;23;20097;-84
2022/08/21 17:42:43;;;;;;;7.65;1.80;;;;;;;19.24;84.12;100907.38;6213260;23;20044;-84
2022/08/21 17:45:11;;;;;;;5.28;2.08;;;;;;;19.11;84.42;100885.94;6188152;23;20073;-85
2022/08/21 17:47:38;;;;;;;7.38;1.30;;;;;;;18.95;84.22;100901.25;6213679;23;20028;-84
2022/08/21 17:50:08;;;;;;;6.55;1.20;;;;;;;18.97;83.88;100896.34;6213350;23;20053;-85
2022/08/21 17:52:34;;;;;;;6.93;1.30;;;;;;;18.87;83.28;100886.13;6188218;23;20013;-84
2022/08/21 17:55:00;;;;;;;5.47;1.33;;;;;;;18.92;83.47;100904.50;6213601;23;20057;-85
2022/08/21 18:00:04;;;;;;;6.57;1.48;;;;;;;20.15;82.08;101117.06;6158749;23;20028;-84
2022/08/21 18:02:30;;;;;;;6.85;1.60;;;;;;;19.22;81.13;100967.63;6182905;23;20009;-83
2022/08/21 18:04:56;;;;;;;6.88;1.45;;;;;;;18.88;81.10;100889.72;6183607;23;20001;-83
2022/08/21 18:07:22;;;;;;;7.60;1.40;;;;;;;19.97;80.78;101082.69;6158000;23;19994;-85
2022/08/21 18:09:47;;;;;;;6.25;1.60;;;;;;;18.75;79.69;100908.06;6183320;23;20002;-85
2022/08/21 18:12:13;;;;;;;6.93;1.30;;;;;;;19.80;79.17;101074.59;6183655;23;20020;-84
2022/08/21 18:14:40;;;;;;;4.70;1.17;;;;;;;19.38;77.58;101025.94;6183041;23;19998;-83
2022/08/21 18:17:09;;;;;;;5.28;1.60;;;;;;;19.92;74.00;101129.06;6183247;23;19998;-84
2022/08/21 18:19:34;;;;;;;9.43;1.95;;;;;;;19.16;72.69;100997.81;6183521;23;20013;-85
2022/08/21 18:22:03;;;;;;;5.13;1.40;;;;;;;19.90;72.66;101139.41;6183213;23;20006;-83
2022/08/21 18:24:28;;;;;;;3.85;1.30;;;;;;;19.82;73.91;101131.66;6158352;23;20001;-83
2022/08/21 18:26:54;;;;;;;5.85;1.20;;;;;;;19.69;75.31;101130.94;6133892;23;19993;-84
2022/08/21 18:29:21;;;;;;;5.97;1.30;;;;;;;19.50;76.73;101115.88;6158677;23;20030;-84
2022/08/21 18:31:47;;;;;;;4.88;1.35;;;;;;;19.48;78.10;101123.53;6158602;23;20016;-85
2022/08/21 18:39:24;;;;;;;10.00;1.77;;;;;;;18.26;80.80;100980.56;6199925;22;20009;-85
2022/08/21 18:41:51;;;;;;;11.68;1.92;;;;;;;17.87;82.09;100928.66;6212870;22;20037;-85
2022/08/21 18:44:20;;;;;;;5.40;1.15;;;;;;;18.76;80.61;101088.81;6213410;22;20008;-85
2022/08/21 18:47:00;;;;;;;9.45;2.17;;;;;;;18.60;80.45;101067.78;6211882;22;20000;-83
2022/08/21 18:49:26;;;;;;;12.88;2.20;;;;;;;18.95;81.10;101142.06;6213481;22;20062;-83
2022/08/21 18:51:51;;;;;;;9.55;2.03;;;;;;;18.14;80.59;101021.47;6187024;23;20009;-84
2022/08/21 18:54:17;;;;;;;10.63;1.90;;;;;;;17.77;79.15;100993.81;6213546;22;20020;-85
2022/08/21 18:59:18;;;;;;;8.32;2.17;;;;;;;17.81;76.31;101022.19;6201858;23;20023;-85
2022/08/21 19:17:18;;;;;;;8.70;2.00;;;;;;;18.31;74.20;101190.44;6213944;22;20022;-85
2022/08/21 19:19:43;;;;;;;7.68;1.77;;;;;;;18.18;75.16;101196.97;6243967;22;20001;-85
2022/08/21 19:22:09;;;;;;;6.53;1.33;;;;;;;18.23;76.59;101202.50;6243100;22;19993;-86
2022/08/21 19:24:39;;;;;;;10.07;2.25;;;;;;;18.13;79.32;101199.56;6193491;23;20009;-85
2022/08/21 19:42:36;;;;;;;12.38;2.22;;;;;;;17.78;83.20;101222.22;6197319;22;20009;-84
2022/08/21 19:45:03;;;;;;;10.32;2.10;;;;;;;17.75;83.91;101210.97;6187304;23;20017;-85
2022/08/21 19:47:30;;;;;;;8.68;1.55;;;;;;;17.66;83.65;101212.38;6213240;22;19997;-84
2022/08/21 21:38:43;;;;;;;7.50;1.80;;;;;;;17.02;88.11;101263.78;6163793;23;20044;-85
2022/08/21 21:41:12;;;;;;;11.02;2.15;;;;;;;17.01;88.23;101268.38;6214716;23;20017;-87
2022/08/21 21:44:14;;;;;;;9.90;2.10;;;;;;;16.97;87.09;101269.09;6188561;23;19997;-86
2022/08/21 22:33:18;;;;;;;10.73;1.88;;;;;;;16.11;91.00;101238.34;6229969;22;20009;-85
2022/08/21 23:58:53;;;;;;;11.52;1.63;;;;;;;16.44;90.12;101363.72;6209728;22;20028;-86
